Time;durP1;ratioP1;P1;durP2;ratioP2;P2;SDS_P1;SDS_P2;PMS_P1;PMS_P2;Temp;Humidity;BMP_temperature;BMP_pressure;BME280_temperature;BME280_humidity;BME280_pressure;Samples;Min_cycle;Max_cycle;Signal;HPM_P1;HPM_P2
2023/06/21 00:00:12;;;;;;;8.10;5.13;;;;;;;20.36;93.67;100520.41;4971182;28;20057;-79
2023/06/21 00:02:39;;;;;;;7.07;4.38;;;;;;;20.32;93.36;100522.69;4979330;28;20113;-83
2023/06/21 00:05:07;;;;;;;5.30;4.35;;;;;;;20.40;92.85;100521.63;4974491;28;20051;-82
2023/06/21 00:07:33;;;;;;;6.55;4.75;;;;;;;20.41;92.84;100529.38;4981689;28;20051;-82
2023/06/21 00:10:01;;;;;;;6.72;5.05;;;;;;;20.43;92.50;100521.97;4975084;28;20142;-82
2023/06/21 00:12:29;;;;;;;7.25;4.72;;;;;;;20.49;92.48;100507.81;4982367;28;20070;-82
2023/06/21 00:14:55;;;;;;;6.60;5.20;;;;;;;20.43;92.60;100515.84;4973988;28;20659;-83
2023/06/21 00:17:23;;;;;;;6.55;5.38;;;;;;;20.38;92.86;100513.06;4976909;28;20140;-83
2023/06/21 00:19:50;;;;;;;6.85;5.50;;;;;;;20.35;93.16;100503.66;4974838;28;20378;-82
2023/06/21 00:22:21;;;;;;;9.75;5.32;;;;;;;20.37;93.33;100522.03;4977366;28;20063;-80
2023/06/21 00:24:48;;;;;;;8.93;5.35;;;;;;;20.43;93.30;100534.47;4975223;28;20053;-82
2023/06/21 00:27:14;;;;;;;7.00;5.25;;;;;;;20.40;93.47;100526.94;4974980;28;20051;-81
2023/06/21 00:29:42;;;;;;;7.05;5.38;;;;;;;20.38;93.64;100529.00;4968366;28;20110;-82
2023/06/21 00:32:09;;;;;;;7.70;5.43;;;;;;;20.34;94.08;100536.56;4970966;28;20086;-81
2023/06/21 00:34:36;;;;;;;9.50;5.72;;;;;;;20.36;94.29;100550.44;4978513;28;20138;-81
2023/06/21 00:37:03;;;;;;;8.73;5.10;;;;;;;20.36;94.21;100550.44;4979974;28;20085;-81
2023/06/21 00:39:30;;;;;;;7.47;5.05;;;;;;;20.35;94.16;100548.81;4975978;28;20102;-80
2023/06/21 00:41:57;;;;;;;7.15;5.28;;;;;;;20.26;93.97;100552.03;4977430;28;20058;-80
2023/06/21 00:44:23;;;;;;;7.43;5.03;;;;;;;20.16;94.35;100553.34;4977022;28;20074;-80
2023/06/21 00:46:51;;;;;;;9.43;5.47;;;;;;;20.23;94.35;100557.78;4970483;28;20097;-79
2023/06/21 00:49:18;;;;;;;7.35;5.20;;;;;;;20.08;94.79;100556.28;4970380;28;20051;-80
2023/06/21 00:51:46;;;;;;;5.78;5.00;;;;;;;20.04;95.36;100565.72;4978672;28;20133;-81
2023/06/21 00:54:16;;;;;;;7.85;5.75;;;;;;;20.08;95.35;100555.47;4973689;28;20457;-80
2023/06/21 00:56:44;;;;;;;8.65;5.90;;;;;;;20.09;95.14;100557.91;4967825;28;20046;-80
2023/06/21 00:59:11;;;;;;;7.88;5.70;;;;;;;20.13;95.31;100558.28;4960054;28;20074;-82
2023/06/21 01:01:37;;;;;;;8.02;5.43;;;;;;;20.13;95.19;100561.75;4959600;28;20133;-81
2023/06/21 01:04:08;;;;;;;7.70;5.60;;;;;;;20.07;95.16;100567.13;4960037;28;20051;-82
2023/06/21 01:06:42;;;;;;;10.48;5.93;;;;;;;20.06;95.44;100576.94;4968672;28;20111;-83
2023/06/21 01:09:22;;;;;;;8.45;5.38;;;;;;;20.07;95.42;100578.56;4969911;28;20461;-81
2023/06/21 01:11:54;;;;;;;9.65;6.00;;;;;;;20.03;95.73;100580.03;4977576;28;20054;-81
2023/06/21 01:14:33;;;;;;;7.90;5.97;;;;;;;20.01;95.90;100581.28;4981208;28;20110;-82
2023/06/21 01:17:04;;;;;;;7.13;5.80;;;;;;;19.97;96.18;100594.19;4975900;28;20474;-81
2023/06/21 01:19:43;;;;;;;6.50;5.72;;;;;;;19.97;96.30;100599.50;4974351;28;20130;-80
2023/06/21 01:22:18;;;;;;;6.88;5.93;;;;;;;19.89;96.56;100595.25;4966710;28;20047;-82
2023/06/21 01:24:55;;;;;;;8.23;6.00;;;;;;;19.87;96.80;100596.50;4972444;28;20051;-82
2023/06/21 01:27:35;;;;;;;8.43;5.75;;;;;;;19.91;96.77;100600.34;4985486;28;20062;-82
2023/06/21 01:30:05;;;;;;;7.25;5.85;;;;;;;19.89;96.50;100595.25;4980716;28;20052;-81
2023/06/21 01:32:32;;;;;;;11.02;6.70;;;;;;;19.89;96.44;100587.28;4977223;28;20568;-81
2023/06/21 01:35:01;;;;;;;7.82;6.00;;;;;;;19.68;96.90;100597.50;4985331;28;20085;-80
2023/06/21 01:37:27;;;;;;;7.47;6.10;;;;;;;19.73;97.21;100606.44;4985376;28;20058;-81
2023/06/21 01:39:54;;;;;;;8.85;6.38;;;;;;;19.77;97.22;100612.16;4979647;28;20143;-80
2023/06/21 01:42:21;;;;;;;9.18;6.10;;;;;;;19.80;97.10;100609.06;4984478;28;20062;-82
2023/06/21 01:44:48;;;;;;;8.10;6.28;;;;;;;19.72;97.09;100606.66;4978447;28;20118;-81
2023/06/21 01:47:16;;;;;;;8.13;6.30;;;;;;;19.70;97.17;100609.53;4974696;28;20549;-81
2023/06/21 01:49:43;;;;;;;7.40;6.10;;;;;;;19.71;97.56;100613.00;4983257;28;20126;-80
2023/06/21 01:52:11;;;;;;;8.43;6.35;;;;;;;19.65;97.58;100614.69;4985524;28;20055;-80
2023/06/21 01:54:42;;;;;;;9.18;6.00;;;;;;;19.65;97.75;100608.56;4977557;28;20066;-81
2023/06/21 01:57:10;;;;;;;8.35;6.43;;;;;;;19.51;98.43;100616.59;4985363;28;20074;-80
2023/06/21 01:59:37;;;;;;;7.00;6.20;;;;;;;19.40;99.35;100622.56;4987426;28;20084;-82
2023/06/21 02:02:06;;;;;;;9.40;6.75;;;;;;;19.37;99.96;100616.91;4981207;28;20086;-77
2023/06/21 02:04:35;;;;;;;9.65;6.97;;;;;;;19.32;100.00;100620.19;4984178;28;20081;-81
2023/06/21 02:07:03;;;;;;;10.43;7.30;;;;;;;19.35;100.00;100622.41;4984003;28;20047;-83
2023/06/21 02:09:31;;;;;;;10.93;7.30;;;;;;;19.40;100.00;100622.56;4981326;28;20047;-83
2023/06/21 02:12:00;;;;;;;7.88;6.97;;;;;;;19.33;100.00;100631.63;4984854;28;20082;-82
2023/06/21 02:14:26;;;;;;;10.95;7.80;;;;;;;19.29;100.00;100631.22;4976036;28;20050;-82
2023/06/21 02:16:54;;;;;;;8.60;7.03;;;;;;;19.29;100.00;100633.06;4975410;28;20051;-82
2023/06/21 02:19:22;;;;;;;8.02;7.18;;;;;;;19.28;100.00;100640.22;4978607;28;20046;-82
2023/06/21 02:21:51;;;;;;;12.13;7.03;;;;;;;19.35;99.86;100646.28;4986486;28;20051;-80
2023/06/21 02:24:17;;;;;;;9.60;6.55;;;;;;;19.37;99.67;100632.81;4981182;28;20051;-82
2023/06/21 02:26:44;;;;;;;7.80;6.53;;;;;;;19.43;99.27;100643.38;4983724;28;20081;-78
2023/06/21 02:29:11;;;;;;;9.07;7.22;;;;;;;19.44;99.10;100637.03;4980260;28;20134;-82
2023/06/21 02:31:38;;;;;;;8.98;6.97;;;;;;;19.40;99.13;100632.38;4974329;28;20089;-80
2023/06/21 02:34:04;;;;;;;9.20;7.07;;;;;;;19.33;99.27;100634.28;4990573;28;20046;-80
2023/06/21 02:36:31;;;;;;;9.68;7.10;;;;;;;19.29;99.67;100631.22;4991583;28;20070;-83
2023/06/21 02:38:59;;;;;;;10.13;7.53;;;;;;;19.28;99.87;100642.84;4972869;28;20075;-82
2023/06/21 02:41:26;;;;;;;9.70;7.60;;;;;;;19.22;100.00;100641.88;4981247;28;20078;-83
2023/06/21 02:43:52;;;;;;;8.68;7.07;;;;;;;19.20;100.00;100645.75;4974995;28;20083;-83
2023/06/21 02:46:20;;;;;;;9.15;7.20;;;;;;;19.24;100.00;100654.91;4975904;28;20137;-83
2023/06/21 02:48:47;;;;;;;10.40;7.72;;;;;;;19.21;100.00;100665.94;4982152;28;20063;-82
2023/06/21 02:51:13;;;;;;;9.07;7.45;;;;;;;19.17;100.00;100654.13;4982263;28;20077;-83
2023/06/21 02:53:40;;;;;;;10.60;7.97;;;;;;;19.10;100.00;100658.66;4971808;28;20138;-81
2023/06/21 02:56:08;;;;;;;11.45;7.75;;;;;;;19.03;100.00;100653.38;4974670;28;20106;-83
2023/06/21 02:58:34;;;;;;;9.07;7.32;;;;;;;19.04;100.00;100655.00;4984592;28;20046;-83
2023/06/21 03:01:01;;;;;;;10.88;7.60;;;;;;;19.06;100.00;100652.13;4978300;28;20152;-82
2023/06/21 03:03:28;;;;;;;9.27;7.47;;;;;;;19.02;100.00;100661.53;4985414;28;20059;-82
2023/06/21 03:05:55;;;;;;;11.20;7.70;;;;;;;18.96;100.00;100662.38;4999053;23;20118;-79
2023/06/21 03:08:21;;;;;;;9.50;7.70;;;;;;;18.95;100.00;100671.34;4980712;28;20047;-80
2023/06/21 03:10:48;;;;;;;9.00;6.90;;;;;;;19.00;100.00;100674.19;4977559;28;20544;-77
2023/06/21 03:13:16;;;;;;;10.13;7.47;;;;;;;19.01;100.00;100673.16;4978298;28;20061;-80
2023/06/21 03:15:42;;;;;;;8.38;7.38;;;;;;;19.05;100.00;100669.06;4978608;28;20101;-80
2023/06/21 03:18:09;;;;;;;9.90;7.97;;;;;;;19.09;100.00;100687.00;4977151;28;20145;-79
2023/06/21 03:20:35;;;;;;;8.45;7.47;;;;;;;19.12;100.00;100681.28;4976001;28;20051;-79
2023/06/21 03:23:02;;;;;;;8.40;7.20;;;;;;;19.07;100.00;100690.91;4978563;28;20070;-81
2023/06/21 03:25:29;;;;;;;11.13;7.65;;;;;;;19.06;100.00;100694.56;4980003;28;20057;-81
2023/06/21 03:27:59;;;;;;;9.07;7.18;;;;;;;19.03;100.00;100693.16;4977445;28;20061;-80
2023/06/21 03:30:29;;;;;;;8.52;7.00;;;;;;;19.04;100.00;100700.09;4982445;28;20523;-80
2023/06/21 03:32:56;;;;;;;9.18;7.13;;;;;;;19.04;100.00;100701.94;4975425;28;20061;-80
2023/06/21 03:35:24;;;;;;;11.60;7.93;;;;;;;19.03;100.00;100713.56;4979309;28;20461;-80
2023/06/21 03:37:51;;;;;;;7.93;7.13;;;;;;;19.05;100.00;100708.84;4978063;28;20050;-79
2023/06/21 03:40:18;;;;;;;11.30;7.60;;;;;;;19.07;100.00;100706.81;4977909;28;20042;-80
2023/06/21 03:42:45;;;;;;;10.70;7.68;;;;;;;19.09;100.00;100723.34;4977942;28;20097;-77
2023/06/21 03:45:12;;;;;;;13.60;7.47;;;;;;;19.16;99.82;100711.69;4977889;28;20057;-79
2023/06/21 03:47:42;;;;;;;8.55;7.32;;;;;;;19.26;99.51;100713.88;4977733;28;20486;-80
2023/06/21 03:50:09;;;;;;;9.85;7.40;;;;;;;19.32;98.85;100725.50;4970572;28;20435;-78
2023/06/21 03:52:36;;;;;;;10.30;7.53;;;;;;;19.31;98.80;100719.38;4978161;28;20086;-80
2023/06/21 03:55:04;;;;;;;10.10;7.47;;;;;;;19.38;98.48;100725.44;4978570;28;20495;-79
2023/06/21 03:57:31;;;;;;;9.95;7.45;;;;;;;19.41;98.22;100727.69;4979785;28;20081;-80
2023/06/21 03:59:58;;;;;;;12.75;7.97;;;;;;;19.44;98.18;100727.25;4979270;28;20134;-80
2023/06/21 04:02:24;;;;;;;9.88;7.28;;;;;;;19.48;97.82;100733.78;4978866;28;20051;-80
2023/06/21 04:04:52;;;;;;;10.88;7.72;;;;;;;19.59;97.50;100734.16;4977909;28;20082;-79
2023/06/21 04:07:21;;;;;;;8.43;7.10;;;;;;;19.59;97.16;100727.00;4969522;28;20380;-80
2023/06/21 04:09:51;;;;;;;9.45;7.88;;;;;;;19.68;96.89;100727.59;4972145;28;20086;-80
2023/06/21 04:12:21;;;;;;;10.25;7.32;;;;;;;19.77;96.65;100731.63;4969061;28;20038;-79
2023/06/21 04:14:48;;;;;;;10.82;7.65;;;;;;;19.86;96.05;100736.44;4975697;28;20162;-79
2023/06/21 04:17:15;;;;;;;12.43;7.72;;;;;;;19.85;95.25;100723.38;4973655;28;20166;-79
2023/06/21 04:19:41;;;;;;;10.35;7.65;;;;;;;20.15;94.71;100732.38;4971952;28;20133;-79
2023/06/21 04:22:09;;;;;;;9.00;7.13;;;;;;;20.60;92.77;100734.88;4975477;28;20194;-79
2023/06/21 04:24:36;;;;;;;8.05;7.10;;;;;;;20.84;90.86;100725.19;4983983;28;20137;-79
2023/06/21 04:27:05;;;;;;;13.77;7.80;;;;;;;21.05;89.20;100722.13;4987749;28;20066;-78
2023/06/21 04:29:36;;;;;;;9.90;7.88;;;;;;;21.06;88.59;100730.91;4986321;28;20050;-79
2023/06/21 04:32:03;;;;;;;11.27;7.50;;;;;;;20.97;88.66;100721.59;4977869;28;20077;-79
2023/06/21 04:34:29;;;;;;;10.05;7.60;;;;;;;21.05;88.71;100734.59;4977999;28;20128;-79
2023/06/21 04:36:56;;;;;;;8.88;7.25;;;;;;;21.09;88.34;100731.28;4979276;28;20472;-79
2023/06/21 04:39:24;;;;;;;13.55;7.35;;;;;;;21.22;87.97;100729.53;4974954;28;20548;-80
2023/06/21 04:41:53;;;;;;;13.35;7.95;;;;;;;21.19;87.93;100738.75;4978820;28;20078;-80
2023/06/21 04:44:19;;;;;;;9.88;7.70;;;;;;;21.16;88.13;100742.66;4978196;28;20046;-80
2023/06/21 04:46:46;;;;;;;11.50;7.72;;;;;;;21.50;87.35;100735.09;4976045;28;20082;-78
2023/06/21 04:49:17;;;;;;;13.70;8.30;;;;;;;22.04;84.76;100752.78;4976950;28;20129;-79
2023/06/21 04:51:44;;;;;;;12.93;7.97;;;;;;;22.07;84.32;100744.34;4979322;28;20051;-79
2023/06/21 04:54:10;;;;;;;9.60;7.97;;;;;;;22.10;84.05;100741.22;4968762;28;20505;-78
2023/06/21 04:56:38;;;;;;;13.50;8.15;;;;;;;22.22;83.59;100743.88;4983787;23;20133;-80
2023/06/21 04:59:07;;;;;;;13.07;8.43;;;;;;;22.46;83.15;100747.41;4975905;28;20043;-79
2023/06/21 05:01:34;;;;;;;13.93;7.80;;;;;;;22.60;82.06;100748.78;4969455;28;20125;-80
2023/06/21 05:04:01;;;;;;;13.65;8.02;;;;;;;22.78;81.55;100763.84;4978064;28;20046;-82
2023/06/21 05:06:28;;;;;;;20.92;8.10;;;;;;;22.82;80.94;100757.84;4964916;28;20193;-81
2023/06/21 05:08:54;;;;;;;22.25;8.27;;;;;;;23.03;81.19;100751.09;4958488;28;20134;-80
2023/06/21 05:11:21;;;;;;;23.00;8.93;;;;;;;23.02;80.85;100767.34;5001861;23;20054;-78
2023/06/21 05:13:50;;;;;;;27.73;9.18;;;;;;;23.13;80.16;100762.00;4977555;28;20047;-79
2023/06/21 05:19:09;;;;;;;21.90;9.05;;;;;;;23.49;79.04;100768.84;4995629;28;20073;-81
2023/06/21 05:21:40;;;;;;;16.73;7.95;;;;;;;23.96;77.80;100763.31;4995542;28;20055;-79
2023/06/21 05:24:07;;;;;;;14.63;8.18;;;;;;;24.13;76.64;100776.69;5004736;28;20085;-81
2023/06/21 05:26:33;;;;;;;9.63;7.75;;;;;;;24.53;75.29;100776.56;4991489;28;20102;-81
2023/06/21 05:29:36;;;;;;;11.13;8.15;;;;;;;25.00;73.97;100773.53;4996024;28;20054;-79
2023/06/21 05:32:45;;;;;;;14.10;8.40;;;;;;;25.82;72.00;100783.31;4989837;28;20428;-79
2023/06/21 05:35:44;;;;;;;9.77;7.68;;;;;;;26.33;70.60;100787.31;4902362;29;20051;-80
2023/06/21 05:38:16;;;;;;;13.32;8.27;;;;;;;26.56;68.92;100786.91;4900903;29;20164;-79
2023/06/21 05:40:43;;;;;;;12.82;8.57;;;;;;;26.63;69.14;100790.19;4977590;28;20146;-80
2023/06/21 05:43:10;;;;;;;18.60;8.23;;;;;;;26.49;68.84;100786.31;4977978;28;20078;-79
2023/06/21 05:45:39;;;;;;;10.75;7.65;;;;;;;26.94;67.59;100775.06;4996416;28;20046;-81
2023/06/21 05:48:06;;;;;;;12.27;8.27;;;;;;;26.89;68.05;100793.03;4995821;28;20051;-81
2023/06/21 05:50:33;;;;;;;13.35;7.90;;;;;;;27.24;67.08;100805.88;4992161;28;20043;-81
2023/06/21 05:52:59;;;;;;;15.45;8.93;;;;;;;27.44;66.63;100798.69;5002371;28;20097;-79
2023/06/21 05:55:26;;;;;;;13.82;8.25;;;;;;;26.81;67.44;100796.22;4983608;28;20054;-80
2023/06/21 05:57:53;;;;;;;12.43;8.52;;;;;;;26.72;68.36;100810.13;4980979;28;20073;-80
2023/06/21 06:00:20;;;;;;;13.73;8.85;;;;;;;26.64;68.75;100817.84;4992403;28;20108;-80
2023/06/21 06:02:48;;;;;;;13.48;7.88;;;;;;;27.11;67.34;100812.50;4985157;28;20644;-78
2023/06/21 06:05:16;;;;;;;15.85;8.30;;;;;;;27.46;66.03;100805.66;4994024;28;20046;-81
2023/06/21 06:07:42;;;;;;;12.85;8.45;;;;;;;27.98;64.95;100811.75;4967577;28;20085;-82
2023/06/21 06:10:10;;;;;;;18.40;8.23;;;;;;;28.32;63.77;100803.19;4981348;28;20486;-82
2023/06/21 06:12:36;;;;;;;12.63;8.20;;;;;;;28.49;63.44;100806.41;4997237;28;20050;-82
2023/06/21 06:15:03;;;;;;;12.65;8.40;;;;;;;28.43;64.06;100802.09;4993604;28;20096;-82
2023/06/21 06:17:30;;;;;;;13.63;9.18;;;;;;;28.32;64.12;100808.59;4975006;28;20055;-82
2023/06/21 06:19:58;;;;;;;11.20;8.30;;;;;;;28.68;63.07;100809.34;4982732;28;20047;-82
2023/06/21 06:22:24;;;;;;;9.80;7.65;;;;;;;28.83;62.80;100808.56;4995456;28;20082;-81
2023/06/21 06:24:51;;;;;;;9.60;7.15;;;;;;;29.89;60.47;100807.25;4993932;28;20050;-81
2023/06/21 06:27:18;;;;;;;13.55;8.05;;;;;;;29.62;60.43;100813.09;5001876;28;20128;-82
2023/06/21 06:29:44;;;;;;;12.93;8.38;;;;;;;30.34;59.61;100819.63;4996487;28;20102;-80
2023/06/21 06:32:11;;;;;;;14.77;8.30;;;;;;;29.89;59.76;100823.44;4978239;28;20116;-82
2023/06/21 06:34:38;;;;;;;11.55;7.90;;;;;;;30.43;58.72;100827.94;4992630;28;20134;-81
2023/06/21 06:37:06;;;;;;;13.27;8.15;;;;;;;29.77;59.69;100825.72;4999441;28;20732;-82
2023/06/21 06:39:32;;;;;;;9.75;7.60;;;;;;;30.09;60.40;100823.34;4991813;28;20209;-82
2023/06/21 06:41:59;;;;;;;37.85;30.88;;;;;;;30.12;59.89;100821.97;4997670;28;20085;-78
2023/06/21 06:44:25;;;;;;;12.35;7.93;;;;;;;29.79;59.74;100835.09;4992666;28;20137;-81
2023/06/21 06:46:52;;;;;;;13.48;8.70;;;;;;;29.54;60.48;100819.06;4986407;28;20126;-80
2023/06/21 06:49:19;;;;;;;12.40;8.85;;;;;;;29.24;61.04;100820.81;4983438;28;20084;-81
2023/06/21 06:51:45;;;;;;;11.25;7.82;;;;;;;28.86;62.17;100827.63;4989058;28;20081;-80
2023/06/21 06:54:13;;;;;;;13.65;7.82;;;;;;;29.38;61.64;100823.69;4992596;28;20146;-83
2023/06/21 06:56:40;;;;;;;14.85;7.70;;;;;;;29.99;60.89;100835.03;4978776;28;20143;-79
2023/06/21 06:59:06;;;;;;;9.77;8.48;;;;;;;30.19;59.44;100836.78;4971265;28;20050;-80
2023/06/21 07:01:33;;;;;;;7.63;6.82;;;;;;;30.46;59.21;100840.88;4972163;28;20135;-80
2023/06/21 07:04:01;;;;;;;11.02;7.47;;;;;;;29.60;61.14;100834.16;4966283;28;20059;-80
2023/06/21 07:06:28;;;;;;;10.88;7.70;;;;;;;30.21;59.99;100831.09;4972903;28;20102;-80
2023/06/21 07:08:55;;;;;;;11.98;7.63;;;;;;;30.24;59.49;100828.66;4977324;28;20054;-80
2023/06/21 07:11:23;;;;;;;11.70;7.95;;;;;;;30.20;59.02;100824.09;4981976;28;20158;-82
2023/06/21 07:13:50;;;;;;;11.18;7.90;;;;;;;30.73;59.37;100832.25;4991232;28;20580;-80
2023/06/21 07:16:16;;;;;;;9.02;7.18;;;;;;;31.49;57.19;100826.03;4989504;28;20145;-82
2023/06/21 07:18:43;;;;;;;9.27;7.60;;;;;;;31.71;56.13;100823.56;4981876;28;20584;-80
2023/06/21 07:21:09;;;;;;;9.10;7.55;;;;;;;29.62;59.62;100834.69;4991831;28;20086;-82
2023/06/21 07:23:36;;;;;;;9.77;7.55;;;;;;;30.42;58.93;100832.53;4989870;28;20571;-81
2023/06/21 07:26:03;;;;;;;11.50;7.70;;;;;;;30.93;57.08;100826.66;4996924;28;20132;-82
2023/06/21 07:28:31;;;;;;;11.70;8.20;;;;;;;31.66;56.38;100832.56;4998345;28;20054;-79
2023/06/21 07:30:59;;;;;;;10.48;7.22;;;;;;;30.93;56.78;100832.06;4997160;28;20050;-79
2023/06/21 07:33:26;;;;;;;11.10;6.93;;;;;;;31.48;55.75;100830.63;4986001;28;20057;-81
2023/06/21 07:35:52;;;;;;;11.48;7.75;;;;;;;30.80;56.73;100832.72;4992665;28;20193;-81
2023/06/21 07:38:19;;;;;;;9.38;7.20;;;;;;;31.69;55.81;100847.41;4997839;28;20145;-80
2023/06/21 07:40:46;;;;;;;11.85;7.50;;;;;;;31.76;55.46;100844.34;4992567;28;20093;-80
2023/06/21 07:43:12;;;;;;;12.68;7.28;;;;;;;32.24;54.24;100828.75;4994058;28;20074;-81
2023/06/21 07:45:41;;;;;;;8.70;6.78;;;;;;;31.97;54.27;100830.22;4974384;28;20130;-81
2023/06/21 07:48:08;;;;;;;9.05;7.60;;;;;;;30.06;58.64;100836.59;4997838;28;20424;-80
2023/06/21 07:50:34;;;;;;;7.82;6.93;;;;;;;31.21;57.41;100839.31;4994856;28;20046;-81
2023/06/21 07:53:01;;;;;;;9.13;7.57;;;;;;;30.77;57.88;100838.72;4997629;28;20070;-81
2023/06/21 07:55:28;;;;;;;8.88;7.85;;;;;;;30.36;58.80;100836.34;4992124;28;20055;-82
2023/06/21 07:57:54;;;;;;;10.88;7.70;;;;;;;30.32;58.57;100821.81;4990376;28;20050;-82
2023/06/21 08:00:21;;;;;;;9.95;7.90;;;;;;;29.35;60.80;100835.84;4987577;28;20133;-82
2023/06/21 08:02:52;;;;;;;14.82;8.05;;;;;;;30.12;59.41;100832.78;4987730;28;20539;-80
2023/06/21 08:05:18;;;;;;;14.10;7.60;;;;;;;29.24;60.92;100838.88;4999298;28;20089;-81
2023/06/21 08:07:45;;;;;;;17.25;8.70;;;;;;;29.19;61.93;100846.97;4990189;28;20082;-81
2023/06/21 08:10:12;;;;;;;11.15;7.80;;;;;;;28.77;62.22;100850.00;4986623;28;20058;-81
2023/06/21 08:12:39;;;;;;;10.05;8.27;;;;;;;28.99;61.54;100845.94;4993879;28;20080;-80
2023/06/21 08:15:07;;;;;;;9.05;8.15;;;;;;;29.15;61.86;100852.09;4998606;28;20058;-81
2023/06/21 08:17:36;;;;;;;13.07;8.60;;;;;;;28.50;62.64;100840.31;4999502;28;20137;-81
2023/06/21 08:20:06;;;;;;;12.25;8.50;;;;;;;28.42;63.73;100848.94;4999811;28;20057;-82
2023/06/21 08:22:33;;;;;;;9.68;8.25;;;;;;;28.12;64.02;100832.75;4997192;28;20050;-81
2023/06/21 08:24:59;;;;;;;11.93;8.85;;;;;;;29.23;63.05;100835.38;4997635;28;20093;-80
2023/06/21 08:27:29;;;;;;;10.35;9.25;;;;;;;29.81;61.30;100843.72;4998427;28;20085;-81
2023/06/21 09:08:54;;;;;;;9.95;8.95;;;;;;;29.76;60.11;100826.78;4918087;29;20059;-82
2023/06/21 09:17:41;;;;;;;10.45;9.35;;;;;;;28.64;63.40;100835.19;5070163;23;19937;-80
2023/06/21 09:20:09;;;;;;;10.40;9.00;;;;;;;28.99;62.80;100839.75;4976525;28;20505;-81
2023/06/21 09:22:37;;;;;;;12.30;9.15;;;;;;;29.99;61.37;100835.03;4967827;28;20089;-79
2023/06/21 09:25:06;;;;;;;14.57;8.88;;;;;;;30.40;58.82;100826.59;4968667;28;20137;-80
2023/06/21 09:27:39;;;;;;;10.88;9.77;;;;;;;31.00;58.19;100835.22;4968194;28;20103;-80
2023/06/21 09:30:07;;;;;;;9.95;8.95;;;;;;;30.91;57.48;100828.84;4955804;28;20056;-81
2023/06/21 09:32:35;;;;;;;14.10;9.38;;;;;;;29.01;60.32;100835.69;4961083;28;20109;-80
2023/06/21 09:35:02;;;;;;;10.73;9.52;;;;;;;29.26;60.78;100837.50;4957750;28;20043;-80
2023/06/21 09:37:34;;;;;;;9.95;8.82;;;;;;;29.86;60.45;100841.00;4966384;28;20129;-80
2023/06/21 09:40:00;;;;;;;10.40;9.40;;;;;;;29.74;60.76;100840.56;4952896;28;20122;-80
2023/06/21 09:42:28;;;;;;;13.77;9.10;;;;;;;30.30;59.41;100840.19;4957851;28;20065;-79
2023/06/21 09:44:56;;;;;;;10.57;9.30;;;;;;;31.05;58.37;100845.19;4966473;28;20129;-79
2023/06/21 09:47:23;;;;;;;11.23;10.02;;;;;;;30.33;57.92;100839.63;4973068;28;20049;-78
2023/06/21 09:49:50;;;;;;;14.30;9.45;;;;;;;29.75;59.58;100852.16;4964275;28;20141;-80
2023/06/21 09:52:22;;;;;;;10.82;9.73;;;;;;;29.82;59.47;100856.13;4977938;28;20398;-82
2023/06/21 09:54:48;;;;;;;11.48;10.27;;;;;;;29.78;59.89;100854.25;4979225;28;20153;-81
2023/06/21 09:57:16;;;;;;;13.70;9.60;;;;;;;30.71;58.47;100851.47;4986527;28;20055;-80
2023/06/21 09:59:48;;;;;;;12.95;11.00;;;;;;;30.60;57.95;100844.56;4978069;28;20139;-80
2023/06/21 10:02:15;;;;;;;11.80;8.93;;;;;;;29.95;59.22;100860.09;4963342;28;20054;-78
2023/06/21 10:04:43;;;;;;;12.25;8.93;;;;;;;28.57;62.19;100867.78;4969117;28;20078;-81
2023/06/21 10:07:12;;;;;;;10.68;8.82;;;;;;;28.54;62.91;100860.25;4968538;28;20083;-80
2023/06/21 10:09:39;;;;;;;9.93;8.90;;;;;;;28.26;63.76;100871.53;4960805;29;20070;-79
2023/06/21 10:12:06;;;;;;;13.25;9.13;;;;;;;28.07;63.87;100882.78;4972372;28;20113;-76
2023/06/21 10:14:33;;;;;;;10.27;8.73;;;;;;;28.39;63.67;100874.50;4990467;28;20085;-79
2023/06/21 10:17:02;;;;;;;10.98;8.77;;;;;;;28.39;63.73;100871.00;4997334;28;20074;-80
2023/06/21 10:19:30;;;;;;;11.50;9.05;;;;;;;29.17;61.96;100873.38;4969969;28;20119;-80
2023/06/21 10:22:04;;;;;;;10.43;8.43;;;;;;;29.48;60.79;100866.00;4976664;28;20050;-78
2023/06/21 10:24:36;;;;;;;11.48;9.00;;;;;;;29.79;59.60;100872.88;4972734;28;20051;-79
2023/06/21 10:27:05;;;;;;;9.55;8.65;;;;;;;29.59;59.46;100857.63;4958429;29;20126;-80
2023/06/21 10:29:33;;;;;;;11.55;9.13;;;;;;;29.53;60.11;100869.50;4973193;28;20230;-80
2023/06/21 10:32:01;;;;;;;13.52;9.45;;;;;;;29.43;61.26;100884.91;4960545;28;20134;-80
2023/06/21 10:34:36;;;;;;;13.48;9.82;;;;;;;29.17;61.48;100876.88;4958859;29;20055;-81
2023/06/21 10:37:10;;;;;;;12.27;9.50;;;;;;;29.06;61.72;100880.66;4966677;28;20063;-79
2023/06/21 10:39:36;;;;;;;13.95;10.68;;;;;;;28.84;61.55;100874.78;4972629;28;20137;-80
2023/06/21 10:42:05;;;;;;;11.88;9.30;;;;;;;29.79;60.92;100880.97;4977109;28;20050;-80
2023/06/21 10:44:32;;;;;;;15.65;10.18;;;;;;;29.45;61.09;100885.44;4977150;28;20042;-79
2023/06/21 10:47:01;;;;;;;16.38;10.05;;;;;;;29.85;59.90;100885.25;4960408;28;20184;-80
2023/06/21 10:49:31;;;;;;;14.05;9.50;;;;;;;29.53;59.99;100874.88;4964315;28;20073;-80
2023/06/21 10:51:58;;;;;;;13.57;9.80;;;;;;;29.07;60.73;100890.38;4960511;28;20134;-80
2023/06/21 10:54:26;;;;;;;18.42;10.50;;;;;;;29.38;61.04;100893.78;4959129;29;20133;-80
2023/06/21 10:56:53;;;;;;;12.98;10.50;;;;;;;28.65;62.22;100896.06;4956375;28;20137;-80
2023/06/21 10:59:24;;;;;;;14.70;10.18;;;;;;;28.84;61.78;100889.03;4962963;28;20118;-79
2023/06/21 11:01:51;;;;;;;11.70;9.75;;;;;;;28.66;61.93;100890.41;4970583;28;20458;-78
2023/06/21 11:04:19;;;;;;;13.75;10.23;;;;;;;28.91;61.17;100878.81;4970392;28;20532;-80
2023/06/21 11:06:45;;;;;;;11.05;9.70;;;;;;;28.99;61.95;100896.31;4958555;28;20155;-80
2023/06/21 11:09:16;;;;;;;14.75;10.40;;;;;;;29.14;61.82;100898.97;4951935;29;20505;-80
2023/06/21 11:11:50;;;;;;;11.65;10.50;;;;;;;29.13;62.47;100907.34;4955934;29;20081;-81
2023/06/21 11:14:21;;;;;;;11.23;9.65;;;;;;;29.25;60.36;100892.50;4958295;28;20047;-80
2023/06/21 11:16:48;;;;;;;11.18;9.35;;;;;;;29.50;60.19;100912.38;4950284;28;20082;-80
2023/06/21 11:19:15;;;;;;;12.40;9.07;;;;;;;28.98;59.88;100902.78;4948976;28;20459;-79
2023/06/21 11:21:49;;;;;;;11.02;8.65;;;;;;;29.19;59.70;100912.44;4963626;28;20576;-79
2023/06/21 11:24:18;;;;;;;9.27;8.27;;;;;;;29.68;59.17;100903.69;4958045;28;20091;-79
2023/06/21 11:26:56;;;;;;;12.63;9.75;;;;;;;29.71;59.78;100908.53;4950687;28;20146;-81
2023/06/21 11:29:22;;;;;;;10.98;9.88;;;;;;;29.32;61.03;100901.06;4952295;28;20044;-80
2023/06/21 11:31:49;;;;;;;10.70;9.60;;;;;;;29.44;60.21;100906.19;4969484;28;20577;-79
2023/06/21 11:34:26;;;;;;;10.98;9.30;;;;;;;29.59;59.09;100902.66;4967137;28;20054;-80
2023/06/21 11:36:54;;;;;;;10.50;8.80;;;;;;;29.33;59.53;100904.56;4965250;28;20481;-79
2023/06/21 11:39:25;;;;;;;9.70;8.30;;;;;;;29.55;58.54;100910.47;4965817;28;20320;-80
2023/06/21 11:42:02;;;;;;;11.88;7.63;;;;;;;29.86;57.49;100894.94;4964922;28;20047;-79
2023/06/21 11:44:33;;;;;;;9.45;8.07;;;;;;;29.56;58.77;100916.69;4962467;28;20139;-79
2023/06/21 11:47:19;;;;;;;11.23;7.82;;;;;;;29.47;58.22;100911.03;4958783;28;20047;-80
2023/06/21 11:49:57;;;;;;;10.23;7.90;;;;;;;29.26;58.35;100898.69;4958195;28;20051;-81
2023/06/21 11:52:32;;;;;;;10.60;8.05;;;;;;;29.46;59.13;100908.63;4960956;28;20441;-81
2023/06/21 11:55:03;;;;;;;11.23;7.90;;;;;;;29.12;59.22;100911.91;4962489;28;20428;-78
2023/06/21 11:57:30;;;;;;;9.60;7.85;;;;;;;29.21;58.55;100907.59;4965322;28;20138;-81
2023/06/21 11:59:57;;;;;;;8.95;7.70;;;;;;;29.40;57.90;100905.91;4961365;28;20429;-81
2023/06/21 12:02:24;;;;;;;8.25;7.38;;;;;;;29.52;57.21;100907.53;4960054;28;20401;-81
2023/06/21 12:04:50;;;;;;;7.93;6.70;;;;;;;29.62;56.67;100900.22;4961500;28;20146;-81
2023/06/21 12:07:17;;;;;;;7.88;7.07;;;;;;;30.04;56.73;100902.44;4958125;28;20043;-80
2023/06/21 12:09:50;;;;;;;8.65;7.07;;;;;;;29.64;56.68;100910.72;4958641;28;20051;-80
2023/06/21 12:12:17;;;;;;;9.60;6.88;;;;;;;30.24;56.00;100911.50;4959487;28;20051;-81